sensor_id;sensor_type;location;lat;lon;timestamp;P1;durP1;ratioP1;P2;durP2;ratioP2
76729;SDS011;65653;53.106;18.046;2023-04-06T00:02:03;14.00;;;6.00;;
76729;SDS011;65653;53.106;18.046;2023-04-06T00:04:30;18.80;;;6.20;;
76729;SDS011;65653;53.106;18.046;2023-04-06T00:06:57;14.00;;;6.20;;
76729;SDS011;65653;53.106;18.046;2023-04-06T00:09:26;15.10;;;6.20;;
76729;SDS011;65653;53.106;18.046;2023-04-06T00:11:59;17.80;;;6.20;;
76729;SDS011;65653;53.106;18.046;2023-04-06T00:14:26;15.30;;;6.20;;
76729;SDS011;65653;53.106;18.046;2023-04-06T00:16:53;16.50;;;6.60;;
76729;SDS011;65653;53.106;18.046;2023-04-06T00:19:21;13.90;;;5.80;;
76729;SDS011;65653;53.106;18.046;2023-04-06T00:21:48;13.20;;;5.30;;
76729;SDS011;65653;53.106;18.046;2023-04-06T00:24:15;16.90;;;6.30;;
76729;SDS011;65653;53.106;18.046;2023-04-06T00:26:41;15.80;;;6.40;;
76729;SDS011;65653;53.106;18.046;2023-04-06T00:29:08;16.80;;;6.70;;
76729;SDS011;65653;53.106;18.046;2023-04-06T00:31:35;13.40;;;6.10;;
76729;SDS011;65653;53.106;18.046;2023-04-06T00:34:05;17.10;;;7.80;;
76729;SDS011;65653;53.106;18.046;2023-04-06T00:36:32;21.50;;;7.50;;
76729;SDS011;65653;53.106;18.046;2023-04-06T00:38:59;21.30;;;9.70;;
76729;SDS011;65653;53.106;18.046;2023-04-06T00:41:26;21.80;;;9.90;;
76729;SDS011;65653;53.106;18.046;2023-04-06T00:43:53;23.90;;;10.10;;
76729;SDS011;65653;53.106;18.046;2023-04-06T00:46:21;27.40;;;9.70;;
76729;SDS011;65653;53.106;18.046;2023-04-06T00:48:47;18.00;;;8.10;;
76729;SDS011;65653;53.106;18.046;2023-04-06T00:51:14;14.90;;;7.40;;
76729;SDS011;65653;53.106;18.046;2023-04-06T00:53:41;20.30;;;7.80;;
76729;SDS011;65653;53.106;18.046;2023-04-06T00:56:07;14.30;;;7.20;;
76729;SDS011;65653;53.106;18.046;2023-04-06T00:58:36;18.10;;;6.10;;
76729;SDS011;65653;53.106;18.046;2023-04-06T01:01:07;15.60;;;6.60;;
76729;SDS011;65653;53.106;18.046;2023-04-06T01:03:33;13.20;;;6.40;;
76729;SDS011;65653;53.106;18.046;2023-04-06T01:06:01;20.80;;;7.40;;
76729;SDS011;65653;53.106;18.046;2023-04-06T01:08:27;14.90;;;6.70;;
76729;SDS011;65653;53.106;18.046;2023-04-06T01:10:55;15.30;;;6.80;;
76729;SDS011;65653;53.106;18.046;2023-04-06T01:13:21;13.90;;;6.30;;
76729;SDS011;65653;53.106;18.046;2023-04-06T01:15:48;16.30;;;7.40;;
76729;SDS011;65653;53.106;18.046;2023-04-06T01:18:15;15.50;;;6.90;;
76729;SDS011;65653;53.106;18.046;2023-04-06T01:20:42;14.60;;;6.20;;
76729;SDS011;65653;53.106;18.046;2023-04-06T01:23:09;17.60;;;7.50;;
76729;SDS011;65653;53.106;18.046;2023-04-06T01:25:35;13.30;;;6.30;;
76729;SDS011;65653;53.106;18.046;2023-04-06T01:28:02;17.50;;;7.10;;
76729;SDS011;65653;53.106;18.046;2023-04-06T01:30:29;23.90;;;9.00;;
76729;SDS011;65653;53.106;18.046;2023-04-06T01:32:55;23.90;;;10.90;;
76729;SDS011;65653;53.106;18.046;2023-04-06T01:35:22;34.90;;;12.80;;
76729;SDS011;65653;53.106;18.046;2023-04-06T01:37:48;28.20;;;12.80;;
76729;SDS011;65653;53.106;18.046;2023-04-06T01:40:15;21.10;;;10.20;;
76729;SDS011;65653;53.106;18.046;2023-04-06T01:42:42;18.10;;;7.90;;
76729;SDS011;65653;53.106;18.046;2023-04-06T01:45:09;19.10;;;8.20;;
76729;SDS011;65653;53.106;18.046;2023-04-06T01:47:35;19.70;;;7.70;;
76729;SDS011;65653;53.106;18.046;2023-04-06T01:50:03;19.40;;;8.10;;
76729;SDS011;65653;53.106;18.046;2023-04-06T01:52:32;18.50;;;7.60;;
76729;SDS011;65653;53.106;18.046;2023-04-06T01:54:59;19.20;;;7.70;;
76729;SDS011;65653;53.106;18.046;2023-04-06T01:57:26;16.30;;;7.80;;
76729;SDS011;65653;53.106;18.046;2023-04-06T01:59:52;15.90;;;7.30;;
76729;SDS011;65653;53.106;18.046;2023-04-06T02:02:19;19.60;;;8.40;;
76729;SDS011;65653;53.106;18.046;2023-04-06T02:04:46;17.50;;;7.80;;
76729;SDS011;65653;53.106;18.046;2023-04-06T02:07:13;18.90;;;8.20;;
76729;SDS011;65653;53.106;18.046;2023-04-06T02:09:40;16.70;;;6.90;;
76729;SDS011;65653;53.106;18.046;2023-04-06T02:12:07;16.60;;;6.90;;
76729;SDS011;65653;53.106;18.046;2023-04-06T02:14:34;14.80;;;6.40;;
76729;SDS011;65653;53.106;18.046;2023-04-06T02:17:00;15.90;;;7.20;;
76729;SDS011;65653;53.106;18.046;2023-04-06T02:19:27;25.00;;;8.80;;
76729;SDS011;65653;53.106;18.046;2023-04-06T02:21:57;29.30;;;12.50;;
76729;SDS011;65653;53.106;18.046;2023-04-06T02:24:23;30.70;;;12.80;;
76729;SDS011;65653;53.106;18.046;2023-04-06T02:26:50;25.90;;;11.10;;
76729;SDS011;65653;53.106;18.046;2023-04-06T02:29:17;28.30;;;10.60;;
76729;SDS011;65653;53.106;18.046;2023-04-06T02:31:43;25.60;;;10.30;;
76729;SDS011;65653;53.106;18.046;2023-04-06T02:34:10;24.80;;;9.90;;
76729;SDS011;65653;53.106;18.046;2023-04-06T02:36:38;21.10;;;9.10;;
76729;SDS011;65653;53.106;18.046;2023-04-06T02:39:04;23.50;;;9.60;;
76729;SDS011;65653;53.106;18.046;2023-04-06T02:41:31;21.10;;;9.00;;
76729;SDS011;65653;53.106;18.046;2023-04-06T02:43:58;14.70;;;4.70;;
76729;SDS011;65653;53.106;18.046;2023-04-06T02:46:25;12.90;;;5.10;;
76729;SDS011;65653;53.106;18.046;2023-04-06T02:48:52;12.40;;;5.40;;
76729;SDS011;65653;53.106;18.046;2023-04-06T02:51:18;13.90;;;5.40;;
76729;SDS011;65653;53.106;18.046;2023-04-06T02:53:48;9.80;;;4.60;;
76729;SDS011;65653;53.106;18.046;2023-04-06T02:56:15;14.40;;;5.40;;
76729;SDS011;65653;53.106;18.046;2023-04-06T02:58:42;12.60;;;5.10;;
76729;SDS011;65653;53.106;18.046;2023-04-06T03:01:08;13.30;;;5.90;;
76729;SDS011;65653;53.106;18.046;2023-04-06T03:03:35;11.80;;;4.20;;
76729;SDS011;65653;53.106;18.046;2023-04-06T03:06:03;21.00;;;7.70;;
76729;SDS011;65653;53.106;18.046;2023-04-06T03:08:29;25.90;;;10.80;;
76729;SDS011;65653;53.106;18.046;2023-04-06T03:10:56;27.20;;;12.20;;
76729;SDS011;65653;53.106;18.046;2023-04-06T03:13:22;21.60;;;10.40;;
76729;SDS011;65653;53.106;18.046;2023-04-06T03:15:49;19.90;;;9.10;;
76729;SDS011;65653;53.106;18.046;2023-04-06T03:18:17;19.60;;;10.00;;
76729;SDS011;65653;53.106;18.046;2023-04-06T03:20:47;19.60;;;8.90;;
76729;SDS011;65653;53.106;18.046;2023-04-06T03:23:14;18.40;;;9.10;;
76729;SDS011;65653;53.106;18.046;2023-04-06T03:25:40;20.40;;;9.30;;
76729;SDS011;65653;53.106;18.046;2023-04-06T03:28:06;22.10;;;9.50;;
76729;SDS011;65653;53.106;18.046;2023-04-06T03:30:33;22.60;;;9.50;;
76729;SDS011;65653;53.106;18.046;2023-04-06T03:33:00;23.30;;;9.80;;
76729;SDS011;65653;53.106;18.046;2023-04-06T03:35:27;23.80;;;9.90;;
76729;SDS011;65653;53.106;18.046;2023-04-06T03:37:53;19.70;;;9.80;;
76729;SDS011;65653;53.106;18.046;2023-04-06T03:40:19;22.90;;;10.10;;
76729;SDS011;65653;53.106;18.046;2023-04-06T03:42:46;22.40;;;10.40;;
76729;SDS011;65653;53.106;18.046;2023-04-06T03:45:14;26.80;;;11.50;;
76729;SDS011;65653;53.106;18.046;2023-04-06T03:47:40;40.80;;;15.00;;
76729;SDS011;65653;53.106;18.046;2023-04-06T03:50:07;63.10;;;17.50;;
76729;SDS011;65653;53.106;18.046;2023-04-06T03:52:34;51.40;;;16.40;;
76729;SDS011;65653;53.106;18.046;2023-04-06T03:55:02;39.70;;;11.50;;
76729;SDS011;65653;53.106;18.046;2023-04-06T03:57:29;29.40;;;11.40;;
76729;SDS011;65653;53.106;18.046;2023-04-06T03:59:55;26.60;;;11.00;;
76729;SDS011;65653;53.106;18.046;2023-04-06T04:02:22;24.60;;;11.20;;
76729;SDS011;65653;53.106;18.046;2023-04-06T04:04:49;23.30;;;10.70;;
76729;SDS011;65653;53.106;18.046;2023-04-06T04:07:16;34.40;;;11.50;;
76729;SDS011;65653;53.106;18.046;2023-04-06T04:09:42;18.30;;;9.80;;
76729;SDS011;65653;53.106;18.046;2023-04-06T04:12:08;23.80;;;9.50;;
76729;SDS011;65653;53.106;18.046;2023-04-06T04:14:35;27.70;;;10.70;;
76729;SDS011;65653;53.106;18.046;2023-04-06T04:17:01;26.40;;;9.60;;
76729;SDS011;65653;53.106;18.046;2023-04-06T04:19:28;22.10;;;7.80;;
76729;SDS011;65653;53.106;18.046;2023-04-06T04:21:54;20.00;;;9.80;;
76729;SDS011;65653;53.106;18.046;2023-04-06T04:24:21;25.20;;;9.90;;
76729;SDS011;65653;53.106;18.046;2023-04-06T04:26:48;22.80;;;9.60;;
76729;SDS011;65653;53.106;18.046;2023-04-06T04:29:14;17.50;;;8.10;;
76729;SDS011;65653;53.106;18.046;2023-04-06T04:31:41;26.20;;;10.30;;
76729;SDS011;65653;53.106;18.046;2023-04-06T04:34:08;38.40;;;16.80;;
76729;SDS011;65653;53.106;18.046;2023-04-06T04:36:34;48.00;;;19.30;;
76729;SDS011;65653;53.106;18.046;2023-04-06T04:39:00;41.80;;;18.60;;
76729;SDS011;65653;53.106;18.046;2023-04-06T04:41:27;31.50;;;13.00;;
76729;SDS011;65653;53.106;18.046;2023-04-06T04:43:54;24.90;;;10.70;;
76729;SDS011;65653;53.106;18.046;2023-04-06T04:46:20;21.70;;;8.70;;
76729;SDS011;65653;53.106;18.046;2023-04-06T04:48:47;21.50;;;9.50;;
76729;SDS011;65653;53.106;18.046;2023-04-06T04:51:13;19.30;;;10.50;;
76729;SDS011;65653;53.106;18.046;2023-04-06T04:53:39;27.10;;;9.60;;
76729;SDS011;65653;53.106;18.046;2023-04-06T04:56:06;27.50;;;11.80;;
76729;SDS011;65653;53.106;18.046;2023-04-06T04:58:34;33.80;;;13.60;;
76729;SDS011;65653;53.106;18.046;2023-04-06T05:01:00;26.90;;;12.20;;
76729;SDS011;65653;53.106;18.046;2023-04-06T05:03:27;25.70;;;11.60;;
76729;SDS011;65653;53.106;18.046;2023-04-06T05:05:53;31.30;;;13.20;;
76729;SDS011;65653;53.106;18.046;2023-04-06T05:08:20;30.80;;;12.00;;
76729;SDS011;65653;53.106;18.046;2023-04-06T05:10:47;31.80;;;12.20;;
76729;SDS011;65653;53.106;18.046;2023-04-06T05:13:15;33.30;;;12.10;;
76729;SDS011;65653;53.106;18.046;2023-04-06T05:15:41;26.90;;;11.40;;
76729;SDS011;65653;53.106;18.046;2023-04-06T05:18:08;32.70;;;14.70;;
76729;SDS011;65653;53.106;18.046;2023-04-06T05:20:37;34.90;;;14.70;;
76729;SDS011;65653;53.106;18.046;2023-04-06T05:23:05;24.30;;;12.00;;
76729;SDS011;65653;53.106;18.046;2023-04-06T05:25:31;28.10;;;12.90;;
76729;SDS011;65653;53.106;18.046;2023-04-06T05:27:59;27.30;;;11.10;;
76729;SDS011;65653;53.106;18.046;2023-04-06T05:30:26;28.60;;;12.20;;
76729;SDS011;65653;53.106;18.046;2023-04-06T05:32:53;34.80;;;13.50;;
76729;SDS011;65653;53.106;18.046;2023-04-06T05:35:20;32.40;;;12.70;;
76729;SDS011;65653;53.106;18.046;2023-04-06T05:37:47;31.50;;;12.90;;
76729;SDS011;65653;53.106;18.046;2023-04-06T05:40:15;24.70;;;11.40;;
76729;SDS011;65653;53.106;18.046;2023-04-06T05:42:42;29.10;;;12.20;;
76729;SDS011;65653;53.106;18.046;2023-04-06T05:45:09;24.90;;;8.60;;
76729;SDS011;65653;53.106;18.046;2023-04-06T05:47:42;23.70;;;8.30;;
76729;SDS011;65653;53.106;18.046;2023-04-06T05:50:13;22.40;;;9.30;;
76729;SDS011;65653;53.106;18.046;2023-04-06T05:52:41;21.50;;;9.80;;
76729;SDS011;65653;53.106;18.046;2023-04-06T05:55:09;15.10;;;7.40;;
76729;SDS011;65653;53.106;18.046;2023-04-06T05:57:36;23.30;;;9.90;;
76729;SDS011;65653;53.106;18.046;2023-04-06T06:00:04;20.90;;;9.80;;
76729;SDS011;65653;53.106;18.046;2023-04-06T06:02:32;22.90;;;9.30;;
76729;SDS011;65653;53.106;18.046;2023-04-06T06:04:59;21.00;;;9.30;;
76729;SDS011;65653;53.106;18.046;2023-04-06T06:07:36;22.40;;;8.30;;
76729;SDS011;65653;53.106;18.046;2023-04-06T06:10:03;14.10;;;6.70;;
76729;SDS011;65653;53.106;18.046;2023-04-06T06:12:29;25.60;;;11.50;;
76729;SDS011;65653;53.106;18.046;2023-04-06T06:14:56;23.90;;;10.20;;
76729;SDS011;65653;53.106;18.046;2023-04-06T06:17:26;21.20;;;7.30;;
76729;SDS011;65653;53.106;18.046;2023-04-06T06:19:52;17.80;;;7.70;;
76729;SDS011;65653;53.106;18.046;2023-04-06T06:22:19;19.00;;;9.80;;
76729;SDS011;65653;53.106;18.046;2023-04-06T06:24:46;14.20;;;7.30;;
76729;SDS011;65653;53.106;18.046;2023-04-06T06:27:12;13.40;;;7.00;;
76729;SDS011;65653;53.106;18.046;2023-04-06T06:29:39;15.20;;;6.60;;
76729;SDS011;65653;53.106;18.046;2023-04-06T06:32:05;14.50;;;6.60;;
76729;SDS011;65653;53.106;18.046;2023-04-06T06:34:32;16.00;;;6.60;;
76729;SDS011;65653;53.106;18.046;2023-04-06T06:36:58;10.10;;;4.30;;
76729;SDS011;65653;53.106;18.046;2023-04-06T06:39:26;11.20;;;6.10;;
76729;SDS011;65653;53.106;18.046;2023-04-06T06:41:52;13.40;;;5.60;;
76729;SDS011;65653;53.106;18.046;2023-04-06T06:44:21;16.20;;;6.90;;
76729;SDS011;65653;53.106;18.046;2023-04-06T06:46:47;14.90;;;7.30;;
76729;SDS011;65653;53.106;18.046;2023-04-06T06:49:14;20.40;;;8.70;;
76729;SDS011;65653;53.106;18.046;2023-04-06T06:51:41;20.30;;;8.70;;
76729;SDS011;65653;53.106;18.046;2023-04-06T06:54:07;15.00;;;7.80;;
76729;SDS011;65653;53.106;18.046;2023-04-06T06:56:41;34.70;;;16.40;;
76729;SDS011;65653;53.106;18.046;2023-04-06T06:59:08;13.80;;;7.80;;
76729;SDS011;65653;53.106;18.046;2023-04-06T07:01:37;12.70;;;6.40;;
76729;SDS011;65653;53.106;18.046;2023-04-06T07:04:04;13.20;;;5.70;;
76729;SDS011;65653;53.106;18.046;2023-04-06T07:06:30;16.20;;;6.70;;
76729;SDS011;65653;53.106;18.046;2023-04-06T07:08:57;13.70;;;7.10;;
76729;SDS011;65653;53.106;18.046;2023-04-06T07:11:24;14.30;;;7.00;;
76729;SDS011;65653;53.106;18.046;2023-04-06T07:13:50;13.90;;;6.50;;
76729;SDS011;65653;53.106;18.046;2023-04-06T07:16:17;10.90;;;6.30;;
76729;SDS011;65653;53.106;18.046;2023-04-06T07:18:43;13.00;;;7.50;;
76729;SDS011;65653;53.106;18.046;2023-04-06T07:21:10;16.80;;;5.40;;
76729;SDS011;65653;53.106;18.046;2023-04-06T07:23:37;11.90;;;5.50;;
76729;SDS011;65653;53.106;18.046;2023-04-06T07:26:04;10.50;;;5.50;;
76729;SDS011;65653;53.106;18.046;2023-04-06T07:28:30;12.60;;;6.40;;
76729;SDS011;65653;53.106;18.046;2023-04-06T07:30:57;10.20;;;5.60;;
76729;SDS011;65653;53.106;18.046;2023-04-06T07:33:23;12.40;;;7.60;;
76729;SDS011;65653;53.106;18.046;2023-04-06T07:35:51;9.50;;;5.20;;
76729;SDS011;65653;53.106;18.046;2023-04-06T07:38:18;16.70;;;6.80;;
76729;SDS011;65653;53.106;18.046;2023-04-06T07:40:44;15.30;;;7.50;;
76729;SDS011;65653;53.106;18.046;2023-04-06T07:43:11;13.70;;;7.10;;
76729;SDS011;65653;53.106;18.046;2023-04-06T07:45:37;13.60;;;7.00;;
76729;SDS011;65653;53.106;18.046;2023-04-06T07:48:04;12.30;;;6.30;;
76729;SDS011;65653;53.106;18.046;2023-04-06T07:50:31;17.40;;;7.90;;
76729;SDS011;65653;53.106;18.046;2023-04-06T07:52:58;12.70;;;7.00;;
76729;SDS011;65653;53.106;18.046;2023-04-06T07:55:24;13.90;;;6.60;;
76729;SDS011;65653;53.106;18.046;2023-04-06T07:57:51;9.80;;;5.60;;
76729;SDS011;65653;53.106;18.046;2023-04-06T08:00:18;10.20;;;6.00;;
76729;SDS011;65653;53.106;18.046;2023-04-06T08:02:44;10.70;;;5.60;;
76729;SDS011;65653;53.106;18.046;2023-04-06T08:05:11;8.30;;;4.70;;
76729;SDS011;65653;53.106;18.046;2023-04-06T08:07:38;6.50;;;4.20;;
76729;SDS011;65653;53.106;18.046;2023-04-06T08:10:04;8.30;;;4.00;;
76729;SDS011;65653;53.106;18.046;2023-04-06T08:12:32;6.40;;;3.00;;
76729;SDS011;65653;53.106;18.046;2023-04-06T08:15:01;5.70;;;3.70;;
76729;SDS011;65653;53.106;18.046;2023-04-06T08:17:31;6.40;;;3.80;;
76729;SDS011;65653;53.106;18.046;2023-04-06T08:19:58;4.90;;;3.00;;
76729;SDS011;65653;53.106;18.046;2023-04-06T08:22:25;6.70;;;4.00;;
76729;SDS011;65653;53.106;18.046;2023-04-06T08:24:51;4.20;;;2.40;;
76729;SDS011;65653;53.106;18.046;2023-04-06T08:27:17;4.80;;;3.00;;
76729;SDS011;65653;53.106;18.046;2023-04-06T08:29:44;6.90;;;3.10;;
76729;SDS011;65653;53.106;18.046;2023-04-06T08:32:11;4.00;;;2.10;;
76729;SDS011;65653;53.106;18.046;2023-04-06T08:34:37;2.80;;;1.90;;
76729;SDS011;65653;53.106;18.046;2023-04-06T08:37:04;2.90;;;2.30;;
76729;SDS011;65653;53.106;18.046;2023-04-06T08:39:33;3.60;;;2.20;;
76729;SDS011;65653;53.106;18.046;2023-04-06T08:42:00;3.20;;;2.20;;
76729;SDS011;65653;53.106;18.046;2023-04-06T08:44:29;5.20;;;3.20;;
76729;SDS011;65653;53.106;18.046;2023-04-06T08:46:58;5.50;;;2.30;;
76729;SDS011;65653;53.106;18.046;2023-04-06T08:49:25;5.10;;;3.00;;
76729;SDS011;65653;53.106;18.046;2023-04-06T08:51:53;4.50;;;2.80;;
76729;SDS011;65653;53.106;18.046;2023-04-06T08:54:21;5.30;;;2.90;;
76729;SDS011;65653;53.106;18.046;2023-04-06T08:56:47;5.40;;;2.40;;
76729;SDS011;65653;53.106;18.046;2023-04-06T08:59:15;5.70;;;2.70;;
76729;SDS011;65653;53.106;18.046;2023-04-06T09:01:42;3.40;;;2.30;;
76729;SDS011;65653;53.106;18.046;2023-04-06T09:04:11;3.50;;;2.30;;
76729;SDS011;65653;53.106;18.046;2023-04-06T09:06:39;4.80;;;2.50;;
76729;SDS011;65653;53.106;18.046;2023-04-06T09:09:06;3.50;;;2.50;;
76729;SDS011;65653;53.106;18.046;2023-04-06T09:11:46;4.30;;;3.20;;
76729;SDS011;65653;53.106;18.046;2023-04-06T09:14:32;3.70;;;2.90;;
76729;SDS011;65653;53.106;18.046;2023-04-06T09:17:04;4.20;;;2.60;;
76729;SDS011;65653;53.106;18.046;2023-04-06T09:19:31;4.00;;;3.10;;
76729;SDS011;65653;53.106;18.046;2023-04-06T09:22:02;4.10;;;2.70;;
76729;SDS011;65653;53.106;18.046;2023-04-06T09:24:45;3.80;;;2.60;;
76729;SDS011;65653;53.106;18.046;2023-04-06T09:27:14;3.80;;;3.10;;
76729;SDS011;65653;53.106;18.046;2023-04-06T09:29:41;5.20;;;2.50;;
76729;SDS011;65653;53.106;18.046;2023-04-06T09:32:09;3.50;;;2.10;;
76729;SDS011;65653;53.106;18.046;2023-04-06T09:34:40;2.60;;;2.10;;
76729;SDS011;65653;53.106;18.046;2023-04-06T09:37:13;4.70;;;3.00;;
76729;SDS011;65653;53.106;18.046;2023-04-06T09:39:44;5.50;;;3.50;;
76729;SDS011;65653;53.106;18.046;2023-04-06T09:42:32;3.80;;;2.40;;
76729;SDS011;65653;53.106;18.046;2023-04-06T09:44:59;4.40;;;2.90;;
76729;SDS011;65653;53.106;18.046;2023-04-06T09:47:26;5.20;;;2.80;;
76729;SDS011;65653;53.106;18.046;2023-04-06T09:49:57;4.50;;;3.00;;
76729;SDS011;65653;53.106;18.046;2023-04-06T09:52:32;3.30;;;2.70;;
76729;SDS011;65653;53.106;18.046;2023-04-06T09:55:04;3.70;;;3.00;;
76729;SDS011;65653;53.106;18.046;2023-04-06T10:00:13;3.40;;;2.70;;
76729;SDS011;65653;53.106;18.046;2023-04-06T10:05:46;2.60;;;2.20;;
76729;SDS011;65653;53.106;18.046;2023-04-06T10:08:18;4.40;;;3.20;;
76729;SDS011;65653;53.106;18.046;2023-04-06T10:10:50;5.40;;;3.00;;
76729;SDS011;65653;53.106;18.046;2023-04-06T10:13:17;4.30;;;3.30;;
76729;SDS011;65653;53.106;18.046;2023-04-06T10:15:45;5.30;;;3.70;;
76729;SDS011;65653;53.106;18.046;2023-04-06T10:18:13;4.70;;;3.40;;
76729;SDS011;65653;53.106;18.046;2023-04-06T10:25:58;4.70;;;3.10;;
76729;SDS011;65653;53.106;18.046;2023-04-06T10:28:30;2.80;;;2.50;;
76729;SDS011;65653;53.106;18.046;2023-04-06T10:31:04;2.90;;;1.90;;
76729;SDS011;65653;53.106;18.046;2023-04-06T10:39:05;4.40;;;2.60;;
76729;SDS011;65653;53.106;18.046;2023-04-06T10:41:36;3.70;;;2.80;;
76729;SDS011;65653;53.106;18.046;2023-04-06T10:44:04;3.50;;;2.80;;
76729;SDS011;65653;53.106;18.046;2023-04-06T10:46:30;2.10;;;1.90;;
76729;SDS011;65653;53.106;18.046;2023-04-06T10:49:33;3.40;;;2.70;;
76729;SDS011;65653;53.106;18.046;2023-04-06T10:51:56;3.30;;;2.60;;
76729;SDS011;65653;53.106;18.046;2023-04-06T10:54:25;3.30;;;2.70;;
76729;SDS011;65653;53.106;18.046;2023-04-06T10:56:53;3.40;;;2.70;;
76729;SDS011;65653;53.106;18.046;2023-04-06T10:59:19;2.80;;;2.50;;
76729;SDS011;65653;53.106;18.046;2023-04-06T11:01:48;2.50;;;2.30;;
76729;SDS011;65653;53.106;18.046;2023-04-06T11:04:17;4.00;;;2.90;;
76729;SDS011;65653;53.106;18.046;2023-04-06T11:06:49;5.10;;;2.70;;
76729;SDS011;65653;53.106;18.046;2023-04-06T11:09:23;3.40;;;2.50;;
76729;SDS011;65653;53.106;18.046;2023-04-06T11:11:51;3.30;;;2.70;;
76729;SDS011;65653;53.106;18.046;2023-04-06T11:14:18;3.60;;;2.30;;
76729;SDS011;65653;53.106;18.046;2023-04-06T11:16:46;2.00;;;1.80;;
76729;SDS011;65653;53.106;18.046;2023-04-06T11:19:16;3.80;;;2.70;;
76729;SDS011;65653;53.106;18.046;2023-04-06T11:21:44;3.90;;;2.40;;
76729;SDS011;65653;53.106;18.046;2023-04-06T11:24:19;3.50;;;2.20;;
76729;SDS011;65653;53.106;18.046;2023-04-06T11:26:48;3.80;;;2.60;;
76729;SDS011;65653;53.106;18.046;2023-04-06T11:29:20;6.90;;;2.30;;
76729;SDS011;65653;53.106;18.046;2023-04-06T11:31:52;6.00;;;2.90;;
76729;SDS011;65653;53.106;18.046;2023-04-06T11:34:21;3.90;;;2.70;;
76729;SDS011;65653;53.106;18.046;2023-04-06T11:36:49;3.60;;;2.50;;
76729;SDS011;65653;53.106;18.046;2023-04-06T11:39:24;5.00;;;3.00;;
76729;SDS011;65653;53.106;18.046;2023-04-06T11:41:52;3.00;;;2.20;;
76729;SDS011;65653;53.106;18.046;2023-04-06T11:44:38;3.90;;;2.50;;
76729;SDS011;65653;53.106;18.046;2023-04-06T11:47:07;4.90;;;2.60;;
76729;SDS011;65653;53.106;18.046;2023-04-06T11:49:42;3.60;;;2.90;;
76729;SDS011;65653;53.106;18.046;2023-04-06T11:54:50;4.40;;;2.90;;
76729;SDS011;65653;53.106;18.046;2023-04-06T11:57:23;3.10;;;2.80;;
76729;SDS011;65653;53.106;18.046;2023-04-06T11:59:52;4.40;;;2.40;;
76729;SDS011;65653;53.106;18.046;2023-04-06T12:02:19;5.20;;;2.60;;
76729;SDS011;65653;53.106;18.046;2023-04-06T12:04:45;3.40;;;2.50;;
76729;SDS011;65653;53.106;18.046;2023-04-06T12:07:12;2.80;;;2.40;;
76729;SDS011;65653;53.106;18.046;2023-04-06T12:09:38;3.40;;;2.60;;
76729;SDS011;65653;53.106;18.046;2023-04-06T12:12:06;4.20;;;2.20;;
76729;SDS011;65653;53.106;18.046;2023-04-06T12:14:32;5.50;;;2.50;;
76729;SDS011;65653;53.106;18.046;2023-04-06T12:16:59;3.60;;;2.20;;
76729;SDS011;65653;53.106;18.046;2023-04-06T12:19:25;3.70;;;2.50;;
76729;SDS011;65653;53.106;18.046;2023-04-06T12:21:58;4.00;;;2.60;;
76729;SDS011;65653;53.106;18.046;2023-04-06T12:24:42;4.00;;;1.90;;
76729;SDS011;65653;53.106;18.046;2023-04-06T12:27:09;3.00;;;2.40;;
76729;SDS011;65653;53.106;18.046;2023-04-06T12:29:47;3.10;;;2.10;;
76729;SDS011;65653;53.106;18.046;2023-04-06T12:32:27;2.80;;;2.10;;
76729;SDS011;65653;53.106;18.046;2023-04-06T12:34:54;3.00;;;2.30;;
76729;SDS011;65653;53.106;18.046;2023-04-06T12:37:20;3.70;;;2.50;;
76729;SDS011;65653;53.106;18.046;2023-04-06T12:39:47;4.20;;;2.30;;
76729;SDS011;65653;53.106;18.046;2023-04-06T12:42:13;3.80;;;2.40;;
76729;SDS011;65653;53.106;18.046;2023-04-06T12:44:40;4.60;;;2.60;;
76729;SDS011;65653;53.106;18.046;2023-04-06T12:47:10;5.50;;;2.70;;
76729;SDS011;65653;53.106;18.046;2023-04-06T12:49:37;5.40;;;2.60;;
76729;SDS011;65653;53.106;18.046;2023-04-06T12:52:03;5.10;;;3.00;;
76729;SDS011;65653;53.106;18.046;2023-04-06T12:54:30;5.30;;;2.50;;
76729;SDS011;65653;53.106;18.046;2023-04-06T12:56:56;3.10;;;2.40;;
76729;SDS011;65653;53.106;18.046;2023-04-06T12:59:23;3.90;;;2.70;;
76729;SDS011;65653;53.106;18.046;2023-04-06T13:01:51;3.60;;;2.20;;
76729;SDS011;65653;53.106;18.046;2023-04-06T13:04:19;5.40;;;3.00;;
76729;SDS011;65653;53.106;18.046;2023-04-06T13:06:46;5.20;;;2.70;;
76729;SDS011;65653;53.106;18.046;2023-04-06T13:09:12;2.80;;;2.40;;
76729;SDS011;65653;53.106;18.046;2023-04-06T13:11:39;3.30;;;2.90;;
76729;SDS011;65653;53.106;18.046;2023-04-06T13:14:07;2.90;;;2.50;;
76729;SDS011;65653;53.106;18.046;2023-04-06T13:16:34;3.60;;;2.50;;
76729;SDS011;65653;53.106;18.046;2023-04-06T13:19:01;3.90;;;2.60;;
76729;SDS011;65653;53.106;18.046;2023-04-06T13:21:28;2.90;;;2.40;;
76729;SDS011;65653;53.106;18.046;2023-04-06T13:23:56;5.40;;;2.90;;
76729;SDS011;65653;53.106;18.046;2023-04-06T13:26:23;3.10;;;2.80;;
76729;SDS011;65653;53.106;18.046;2023-04-06T13:28:50;4.20;;;2.60;;
76729;SDS011;65653;53.106;18.046;2023-04-06T13:31:17;3.70;;;2.50;;
76729;SDS011;65653;53.106;18.046;2023-04-06T13:33:43;2.60;;;2.00;;
76729;SDS011;65653;53.106;18.046;2023-04-06T13:36:10;3.40;;;2.40;;
76729;SDS011;65653;53.106;18.046;2023-04-06T13:38:36;7.10;;;3.10;;
76729;SDS011;65653;53.106;18.046;2023-04-06T13:41:05;3.60;;;2.60;;
76729;SDS011;65653;53.106;18.046;2023-04-06T13:43:31;3.10;;;2.80;;
76729;SDS011;65653;53.106;18.046;2023-04-06T13:45:58;4.40;;;3.10;;
76729;SDS011;65653;53.106;18.046;2023-04-06T13:48:26;3.30;;;2.30;;
76729;SDS011;65653;53.106;18.046;2023-04-06T13:50:53;4.60;;;2.20;;
76729;SDS011;65653;53.106;18.046;2023-04-06T13:53:20;3.00;;;2.50;;
76729;SDS011;65653;53.106;18.046;2023-04-06T13:55:53;3.80;;;2.70;;
76729;SDS011;65653;53.106;18.046;2023-04-06T13:58:21;3.00;;;2.10;;
76729;SDS011;65653;53.106;18.046;2023-04-06T14:00:47;3.20;;;2.50;;
76729;SDS011;65653;53.106;18.046;2023-04-06T14:03:14;4.90;;;2.60;;
76729;SDS011;65653;53.106;18.046;2023-04-06T14:05:41;3.50;;;2.30;;
76729;SDS011;65653;53.106;18.046;2023-04-06T14:08:08;3.80;;;2.50;;
76729;SDS011;65653;53.106;18.046;2023-04-06T14:10:37;5.10;;;2.30;;
76729;SDS011;65653;53.106;18.046;2023-04-06T14:13:08;4.20;;;3.20;;
76729;SDS011;65653;53.106;18.046;2023-04-06T14:15:35;5.10;;;3.10;;
76729;SDS011;65653;53.106;18.046;2023-04-06T14:18:02;7.80;;;3.20;;
76729;SDS011;65653;53.106;18.046;2023-04-06T14:20:30;3.20;;;2.90;;
76729;SDS011;65653;53.106;18.046;2023-04-06T14:22:59;5.50;;;3.40;;
76729;SDS011;65653;53.106;18.046;2023-04-06T14:25:27;4.30;;;3.30;;
76729;SDS011;65653;53.106;18.046;2023-04-06T14:27:54;6.90;;;3.80;;
76729;SDS011;65653;53.106;18.046;2023-04-06T14:30:21;3.50;;;2.50;;
76729;SDS011;65653;53.106;18.046;2023-04-06T14:32:47;5.40;;;3.10;;
76729;SDS011;65653;53.106;18.046;2023-04-06T14:35:14;3.20;;;2.90;;
76729;SDS011;65653;53.106;18.046;2023-04-06T14:37:40;4.80;;;3.20;;
76729;SDS011;65653;53.106;18.046;2023-04-06T14:40:07;3.50;;;2.60;;
76729;SDS011;65653;53.106;18.046;2023-04-06T14:42:35;4.30;;;2.60;;
76729;SDS011;65653;53.106;18.046;2023-04-06T14:45:02;4.10;;;2.90;;
76729;SDS011;65653;53.106;18.046;2023-04-06T14:47:29;3.10;;;2.70;;
76729;SDS011;65653;53.106;18.046;2023-04-06T14:49:56;4.70;;;3.10;;